createdAt,value
2023-02-22T00:00:53.190Z,58.22
2023-02-22T00:03:25.900Z,58.01
2023-02-22T00:05:58.304Z,58.32
2023-02-22T00:08:30.855Z,58.64
2023-02-22T00:11:05.237Z,58.23
2023-02-22T00:13:33.383Z,58.56
2023-02-22T00:16:05.440Z,58.53
2023-02-22T00:18:39.842Z,58.53
2023-02-22T00:21:13.993Z,58.28
2023-02-22T00:23:47.615Z,58.60
2023-02-22T00:26:21.102Z,58.47
2023-02-22T00:28:54.969Z,58.20
2023-02-22T00:31:29.616Z,58.24
2023-02-22T00:34:05.747Z,58.18
2023-02-22T00:36:37.493Z,58.04
2023-02-22T00:39:07.681Z,58.11
2023-02-22T00:41:40.169Z,58.38
2023-02-22T00:44:12.121Z,58.45
2023-02-22T00:46:44.456Z,58.29
2023-02-22T00:49:19.295Z,58.10
2023-02-22T00:51:47.538Z,58.47
2023-02-22T00:54:28.911Z,58.45
2023-02-22T00:56:58.454Z,58.30
2023-02-22T01:00:12.108Z,58.51
2023-02-22T01:02:45.819Z,58.37
2023-02-22T01:05:17.364Z,58.57
2023-02-22T01:07:48.516Z,58.67
2023-02-22T01:10:33.379Z,58.53
2023-02-22T01:13:09.436Z,58.14
2023-02-22T01:15:45.087Z,58.35
2023-02-22T01:18:35.539Z,58.23
2023-02-22T01:21:08.878Z,58.29
2023-02-22T01:23:40.347Z,58.60
2023-02-22T01:26:09.646Z,58.42
2023-02-22T01:28:53.010Z,58.39
2023-02-22T01:31:30.495Z,58.36
2023-02-22T01:34:19.593Z,58.47
2023-02-22T01:36:47.954Z,58.32
2023-02-22T01:39:21.014Z,58.46
2023-02-22T01:41:53.739Z,58.15
2023-02-22T01:44:39.163Z,58.49
2023-02-22T01:50:12.063Z,58.31
2023-02-22T01:52:42.625Z,58.41
2023-02-22T01:55:20.397Z,58.55
2023-02-22T01:58:02.099Z,58.50
2023-02-22T02:00:32.254Z,58.71
2023-02-22T02:03:04.634Z,58.50
2023-02-22T02:05:46.070Z,58.56
2023-02-22T02:08:26.626Z,58.36
2023-02-22T02:10:58.148Z,58.64
2023-02-22T02:13:28.407Z,58.45
2023-02-22T02:15:57.747Z,58.79
2023-02-22T02:19:10.450Z,58.74
2023-02-22T02:21:56.079Z,58.49
2023-02-22T02:29:23.293Z,59.08
2023-02-22T02:32:24.535Z,59.00
2023-02-22T02:39:21.857Z,58.73
2023-02-22T02:41:52.580Z,58.84
2023-02-22T02:44:29.857Z,59.09
2023-02-22T02:48:12.025Z,58.96
2023-02-22T02:50:49.990Z,58.96
2023-02-22T02:53:23.076Z,59.27
2023-02-22T02:55:52.318Z,59.02
2023-02-22T02:58:22.171Z,58.95
2023-02-22T03:00:54.299Z,58.98
2023-02-22T03:03:47.711Z,59.34
2023-02-22T03:06:55.950Z,59.19
2023-02-22T03:09:41.279Z,59.26
2023-02-22T03:12:20.067Z,59.34
2023-02-22T03:14:56.627Z,59.61
2023-02-22T03:17:30.398Z,59.27
2023-02-22T03:20:01.252Z,59.55
2023-02-22T03:22:38.386Z,59.44
2023-02-22T03:25:09.082Z,59.65
2023-02-22T03:27:47.568Z,59.96
2023-02-22T03:30:19.879Z,59.67
2023-02-22T03:32:57.715Z,59.90
2023-02-22T03:35:34.221Z,59.81
2023-02-22T03:38:12.094Z,59.93
2023-02-22T03:40:47.192Z,59.99
2023-02-22T03:43:18.580Z,59.89
2023-02-22T03:45:56.021Z,60.19
2023-02-22T03:48:32.488Z,60.02
2023-02-22T03:51:06.846Z,60.25
2023-02-22T03:53:38.569Z,60.28
2023-02-22T03:56:12.373Z,60.08
2023-02-22T03:58:45.605Z,60.41
2023-02-22T04:01:16.892Z,60.51
2023-02-22T04:03:52.979Z,60.43
2023-02-22T04:06:32.949Z,60.39
2023-02-22T04:09:05.918Z,60.35
2023-02-22T04:11:35.540Z,60.47
2023-02-22T04:14:04.002Z,60.69
2023-02-22T04:16:34.075Z,60.98
2023-02-22T04:19:12.507Z,61.40
2023-02-22T04:21:41.590Z,61.78
2023-02-22T04:24:22.761Z,62.78
2023-02-22T04:26:58.601Z,62.77
2023-02-22T04:29:31.609Z,62.85
2023-02-22T04:32:01.035Z,63.34
2023-02-22T04:34:30.056Z,64.02
2023-02-22T04:36:59.591Z,64.68
2023-02-22T04:39:47.818Z,65.66
2023-02-22T04:42:19.033Z,65.48
2023-02-22T04:44:50.545Z,65.45
2023-02-22T04:47:24.120Z,65.46
2023-02-22T04:49:59.841Z,65.00
2023-02-22T04:52:31.086Z,64.90
2023-02-22T04:55:14.443Z,65.05
2023-02-22T04:57:44.915Z,64.82
2023-02-22T05:00:21.832Z,64.75
2023-02-22T05:02:54.137Z,64.62
2023-02-22T05:05:22.876Z,64.38
2023-02-22T05:07:51.402Z,64.66
2023-02-22T05:10:22.779Z,64.33
2023-02-22T05:12:52.568Z,64.64
2023-02-22T05:15:21.413Z,65.09
2023-02-22T05:17:52.668Z,64.79
2023-02-22T05:20:28.144Z,65.14
2023-02-22T05:22:58.415Z,65.30
2023-02-22T05:25:29.493Z,64.57
2023-02-22T05:28:03.322Z,64.41
2023-02-22T05:30:33.197Z,64.22
2023-02-22T05:33:03.780Z,64.17
2023-02-22T05:35:33.996Z,64.29
2023-02-22T05:38:06.076Z,63.56
2023-02-22T05:40:38.342Z,63.21
2023-02-22T05:43:12.203Z,63.20
2023-02-22T05:45:43.886Z,63.04
2023-02-22T05:48:13.172Z,63.15
2023-02-22T05:50:44.348Z,63.27
2023-02-22T05:53:13.498Z,62.87
2023-02-22T05:55:46.552Z,63.05
2023-02-22T05:58:17.989Z,62.71
2023-02-22T06:00:49.114Z,62.52
2023-02-22T06:03:18.779Z,62.83
2023-02-22T06:05:47.208Z,62.79
2023-02-22T06:08:21.200Z,63.06
2023-02-22T06:10:55.676Z,62.98
2023-02-22T06:13:29.818Z,62.72
2023-02-22T06:16:01.378Z,62.76
2023-02-22T06:18:32.307Z,63.03
2023-02-22T06:21:06.929Z,62.61
2023-02-22T06:23:39.518Z,62.63
2023-02-22T06:26:11.665Z,62.53
2023-02-22T06:28:46.452Z,62.28
2023-02-22T06:31:34.795Z,62.19
2023-02-22T06:34:11.699Z,62.51
2023-02-22T06:36:43.151Z,62.35
2023-02-22T06:39:30.285Z,61.90
2023-02-22T06:42:05.236Z,61.88
2023-02-22T06:44:38.302Z,61.35
2023-02-22T06:47:13.530Z,61.70
2023-02-22T06:49:47.737Z,61.90
2023-02-22T06:52:18.686Z,61.54
2023-02-22T06:54:47.617Z,61.90
2023-02-22T06:57:34.942Z,62.16
2023-02-22T07:00:04.210Z,62.84
2023-02-22T07:02:36.612Z,62.16
2023-02-22T07:05:12.171Z,62.50
2023-02-22T07:07:40.756Z,62.77
2023-02-22T07:10:09.191Z,62.55
2023-02-22T07:12:53.717Z,62.83
2023-02-22T07:15:26.633Z,63.07
2023-02-22T07:17:57.659Z,63.94
2023-02-22T07:20:29.133Z,63.63
2023-02-22T07:23:00.027Z,64.24
2023-02-22T07:25:28.858Z,63.71
2023-02-22T07:28:04.256Z,63.55
2023-02-22T07:30:35.674Z,63.13
2023-02-22T07:33:10.936Z,62.64
2023-02-22T07:35:40.652Z,62.48
2023-02-22T07:38:10.311Z,62.11
2023-02-22T07:40:42.124Z,61.84
2023-02-22T07:43:17.512Z,61.73
2023-02-22T07:45:49.159Z,61.26
2023-02-22T07:48:22.773Z,60.94
2023-02-22T07:50:55.269Z,60.35
2023-02-22T07:53:42.176Z,60.38
2023-02-22T07:56:15.064Z,60.12
2023-02-22T07:58:46.194Z,59.99
2023-02-22T08:01:18.857Z,59.95
2023-02-22T08:03:52.826Z,59.52
2023-02-22T08:06:26.084Z,60.08
2023-02-22T08:09:06.961Z,59.69
2023-02-22T08:11:39.867Z,59.57
2023-02-22T08:14:09.371Z,59.67
2023-02-22T08:16:41.447Z,59.63
2023-02-22T08:19:10.786Z,59.07
2023-02-22T08:21:45.247Z,59.68
2023-02-22T08:24:18.501Z,59.44
2023-02-22T08:29:39.048Z,59.54
2023-02-22T08:36:03.901Z,59.21
2023-02-22T08:38:43.808Z,58.95
2023-02-22T08:41:32.879Z,58.68
2023-02-22T08:44:06.110Z,58.17
2023-02-22T08:46:42.538Z,57.81
2023-02-22T08:49:30.834Z,57.96
2023-02-22T08:52:01.719Z,57.41
2023-02-22T08:54:47.473Z,57.58
2023-02-22T09:00:25.691Z,57.31
2023-02-22T09:03:21.883Z,56.69
2023-02-22T09:06:38.045Z,56.70
2023-02-22T09:09:14.061Z,56.56
2023-02-22T09:12:24.398Z,56.52
2023-02-22T09:15:56.173Z,56.05
2023-02-22T09:18:43.658Z,56.02
2023-02-22T09:21:26.660Z,56.24
2023-02-22T09:24:11.798Z,55.76
2023-02-22T09:26:54.221Z,55.69
2023-02-22T09:29:25.193Z,55.76
2023-02-22T09:31:58.452Z,55.94
2023-02-22T09:34:49.070Z,55.95
2023-02-22T09:37:25.487Z,56.02
2023-02-22T09:40:28.877Z,55.32
2023-02-22T09:43:35.981Z,54.87
2023-02-22T09:46:39.633Z,54.65
2023-02-22T09:49:26.500Z,55.42
2023-02-22T09:52:20.047Z,55.68
2023-02-22T09:54:55.586Z,55.47
2023-02-22T09:57:28.136Z,55.56
2023-02-22T10:00:01.585Z,54.65
2023-02-22T10:02:53.919Z,54.25
2023-02-22T10:05:32.109Z,54.14
2023-02-22T10:08:08.891Z,54.37
2023-02-22T10:10:40.482Z,53.44
2023-02-22T10:13:17.997Z,52.44
2023-02-22T10:15:58.028Z,51.94
2023-02-22T10:19:10.891Z,51.30
2023-02-22T10:21:57.947Z,51.38
2023-02-22T10:24:40.391Z,51.99
2023-02-22T10:27:17.949Z,52.51
2023-02-22T10:30:23.286Z,52.73
2023-02-22T10:33:12.405Z,52.81
2023-02-22T10:36:00.544Z,52.75
2023-02-22T10:38:34.699Z,52.83
2023-02-22T10:41:21.946Z,53.34
2023-02-22T10:43:55.789Z,53.04
2023-02-22T10:46:43.536Z,53.20
2023-02-22T10:49:26.394Z,52.88
2023-02-22T10:52:22.796Z,52.83
2023-02-22T10:55:15.605Z,52.79
2023-02-22T10:58:11.825Z,52.90
2023-02-22T11:00:50.938Z,52.79
2023-02-22T11:03:22.155Z,52.33
2023-02-22T11:06:06.271Z,52.23
2023-02-22T11:08:38.926Z,52.26
2023-02-22T11:11:24.833Z,52.74
2023-02-22T11:14:02.645Z,52.43
2023-02-22T11:16:56.021Z,52.73
2023-02-22T11:19:31.020Z,52.56
2023-02-22T11:22:13.862Z,51.78
2023-02-22T11:24:51.437Z,51.67
2023-02-22T11:27:44.216Z,51.12
2023-02-22T11:30:39.883Z,50.86
2023-02-22T11:33:25.495Z,50.50
2023-02-22T11:36:08.896Z,50.67
2023-02-22T11:39:09.680Z,50.77
2023-02-22T11:44:41.976Z,50.78
2023-02-22T11:47:32.392Z,50.49
2023-02-22T11:50:35.913Z,50.48
2023-02-22T11:53:36.749Z,50.16
2023-02-22T11:57:02.479Z,49.89
2023-02-22T12:00:20.098Z,50.42
2023-02-22T12:03:16.385Z,50.14
2023-02-22T12:06:13.764Z,49.69
2023-02-22T12:09:03.251Z,49.64
2023-02-22T12:11:40.971Z,48.89
2023-02-22T12:14:34.672Z,48.86
2023-02-22T12:17:24.816Z,48.61
2023-02-22T12:20:17.419Z,48.80
2023-02-22T12:22:55.512Z,48.05
2023-02-22T12:25:39.192Z,47.96
2023-02-22T12:28:24.848Z,48.17
2023-02-22T12:31:12.668Z,47.57
2023-02-22T12:33:56.086Z,47.24
2023-02-22T12:40:11.735Z,46.91
2023-02-22T12:42:52.527Z,46.46
2023-02-22T12:45:44.853Z,46.38
2023-02-22T12:48:54.542Z,46.52
2023-02-22T12:55:00.680Z,45.57
2023-02-22T12:57:51.706Z,46.42
2023-02-22T13:00:26.963Z,47.23
2023-02-22T13:03:06.252Z,48.07
2023-02-22T13:05:56.021Z,48.47
2023-02-22T13:09:11.464Z,48.68
2023-02-22T13:11:44.847Z,48.80
2023-02-22T13:14:37.115Z,49.52
2023-02-22T13:17:25.805Z,49.52
2023-02-22T13:20:01.050Z,48.85
2023-02-22T13:22:37.284Z,49.03
2023-02-22T13:25:12.731Z,48.67
2023-02-22T13:27:49.720Z,48.40
2023-02-22T13:30:48.322Z,48.50
2023-02-22T13:33:30.476Z,48.65
2023-02-22T13:36:24.152Z,48.98
2023-02-22T13:39:28.010Z,49.13
2023-02-22T13:42:41.348Z,49.37
2023-02-22T13:45:50.215Z,49.06
2023-02-22T13:48:42.706Z,49.27
2023-02-22T13:54:30.194Z,49.19
2023-02-22T13:57:16.737Z,48.92
2023-02-22T13:59:55.969Z,48.97
2023-02-22T14:02:40.143Z,48.66
2023-02-22T14:06:09.335Z,48.29
2023-02-22T14:08:57.553Z,47.50
2023-02-22T14:12:08.440Z,47.21
2023-02-22T14:14:46.554Z,46.19
2023-02-22T14:17:47.466Z,46.01
2023-02-22T14:20:32.153Z,46.27
2023-02-22T14:23:43.344Z,45.78
2023-02-22T14:26:14.219Z,45.89
2023-02-22T14:28:57.231Z,45.38
2023-02-22T14:31:37.689Z,45.16
2023-02-22T14:34:14.889Z,45.64
2023-02-22T14:36:52.090Z,45.90
2023-02-22T14:39:24.892Z,44.94
2023-02-22T14:42:04.299Z,45.10
2023-02-22T14:44:35.924Z,45.40
2023-02-22T14:47:18.256Z,45.53
2023-02-22T14:49:54.887Z,45.79
2023-02-22T14:52:28.795Z,45.89
2023-02-22T14:55:05.314Z,45.58
2023-02-22T14:57:42.626Z,45.20
2023-02-22T15:00:20.153Z,45.29
2023-02-22T15:02:57.481Z,45.72
2023-02-22T15:05:38.721Z,46.16
2023-02-22T15:08:09.470Z,46.55
2023-02-22T15:10:47.701Z,47.09
2023-02-22T15:13:24.065Z,47.04
2023-02-22T15:16:24.031Z,47.38
2023-02-22T15:19:24.402Z,46.92
2023-02-22T15:22:15.573Z,46.54
2023-02-22T15:25:11.836Z,45.51
2023-02-22T15:27:56.970Z,45.74
2023-02-22T15:30:42.248Z,45.86
2023-02-22T15:33:19.189Z,46.23
2023-02-22T15:36:31.474Z,46.09
2023-02-22T15:39:48.120Z,46.00
2023-02-22T15:42:37.971Z,46.82
2023-02-22T15:45:11.399Z,47.15
2023-02-22T15:48:01.776Z,47.27
2023-02-22T15:50:46.398Z,47.00
2023-02-22T15:56:52.628Z,47.53
2023-02-22T15:59:26.664Z,47.87
2023-02-22T16:01:56.496Z,48.16
2023-02-22T16:04:27.357Z,48.18
2023-02-22T16:07:02.493Z,48.31
2023-02-22T16:09:33.353Z,48.44
2023-02-22T16:12:25.339Z,48.92
2023-02-22T16:14:54.876Z,48.95
2023-02-22T16:17:30.851Z,49.06
2023-02-22T16:20:01.130Z,49.35
2023-02-22T16:22:37.269Z,49.65
2023-02-22T16:25:21.495Z,49.92
2023-02-22T16:27:53.443Z,49.78
2023-02-22T16:30:32.637Z,49.87
2023-02-22T16:33:10.019Z,50.25
2023-02-22T16:36:00.686Z,50.86
2023-02-22T16:38:39.272Z,51.69
2023-02-22T16:41:16.964Z,51.75
2023-02-22T16:44:00.258Z,51.38
2023-02-22T16:46:42.463Z,51.16
2023-02-22T16:49:14.479Z,51.36
2023-02-22T16:51:46.965Z,51.28
2023-02-22T16:54:20.325Z,51.47
2023-02-22T16:56:53.045Z,51.58
2023-02-22T16:59:23.676Z,51.16
2023-02-22T17:02:06.788Z,51.25
2023-02-22T17:04:53.688Z,51.43
2023-02-22T17:07:24.441Z,51.24
2023-02-22T17:10:01.364Z,51.09
2023-02-22T17:12:54.562Z,50.94
2023-02-22T17:15:38.967Z,50.71
2023-02-22T17:18:19.502Z,50.91
2023-02-22T17:20:49.270Z,50.66
2023-02-22T17:23:26.196Z,50.74
2023-02-22T17:26:01.266Z,50.75
2023-02-22T17:28:36.823Z,50.96
2023-02-22T17:31:35.948Z,51.04
2023-02-22T17:36:58.602Z,51.66
2023-02-22T17:39:34.314Z,52.07
2023-02-22T17:42:06.309Z,52.79
2023-02-22T17:44:36.621Z,52.79
2023-02-22T17:47:09.383Z,53.03
2023-02-22T17:49:41.827Z,52.95
2023-02-22T17:52:15.526Z,52.82
2023-02-22T17:54:44.582Z,52.95
2023-02-22T17:57:13.429Z,53.54
2023-02-22T17:59:42.115Z,53.22
2023-02-22T18:02:19.119Z,53.16
2023-02-22T18:04:48.629Z,53.37
2023-02-22T18:07:19.806Z,53.17
2023-02-22T18:09:48.167Z,53.16
2023-02-22T18:12:17.768Z,53.24
2023-02-22T18:14:49.480Z,53.42
2023-02-22T18:17:28.230Z,53.22
2023-02-22T18:19:58.120Z,53.32
2023-02-22T18:22:26.014Z,53.62
2023-02-22T18:25:00.829Z,53.83
2023-02-22T18:27:30.176Z,54.07
2023-02-22T18:29:58.949Z,53.76
2023-02-22T18:32:31.962Z,54.05
2023-02-22T18:35:01.793Z,54.22
2023-02-22T18:37:31.161Z,54.10
2023-02-22T18:40:00.675Z,54.00
2023-02-22T18:42:29.343Z,53.80
2023-02-22T18:45:00.748Z,54.05
2023-02-22T18:47:35.929Z,54.02
2023-02-22T18:50:06.522Z,53.83
2023-02-22T18:52:35.399Z,53.82
2023-02-22T18:55:08.790Z,53.75
2023-02-22T18:57:37.015Z,53.99
2023-02-22T19:00:07.727Z,53.94
2023-02-22T19:02:38.010Z,54.06
2023-02-22T19:05:07.123Z,54.26
2023-02-22T19:07:35.385Z,53.85
2023-02-22T19:10:07.098Z,53.85
2023-02-22T19:12:36.403Z,54.05
2023-02-22T19:15:09.276Z,54.56
2023-02-22T19:17:42.652Z,55.01
2023-02-22T19:20:12.707Z,55.14
2023-02-22T19:22:44.658Z,55.44
2023-02-22T19:25:13.741Z,55.44
2023-02-22T19:27:46.541Z,55.38
2023-02-22T19:30:16.604Z,55.64
2023-02-22T19:32:47.584Z,55.48
2023-02-22T19:35:26.233Z,55.57
2023-02-22T19:37:55.496Z,56.05
2023-02-22T19:40:25.402Z,56.13
2023-02-22T19:42:59.101Z,56.29
2023-02-22T19:45:27.670Z,56.52
2023-02-22T19:47:58.601Z,56.50
2023-02-22T19:50:28.516Z,56.71
2023-02-22T19:52:56.688Z,57.20
2023-02-22T19:55:32.301Z,57.39
2023-02-22T19:58:01.691Z,57.31
2023-02-22T20:00:37.255Z,57.51
2023-02-22T20:03:14.436Z,57.16
2023-02-22T20:05:43.472Z,57.42
2023-02-22T20:08:11.714Z,57.22
2023-02-22T20:10:39.902Z,57.26
2023-02-22T20:13:11.837Z,57.77
2023-02-22T20:15:45.143Z,57.55
2023-02-22T20:18:14.870Z,57.72
2023-02-22T20:20:45.866Z,57.55
2023-02-22T20:23:17.149Z,57.92
2023-02-22T20:25:55.346Z,58.03
2023-02-22T20:28:24.218Z,57.87
2023-02-22T20:30:52.797Z,57.91
2023-02-22T20:33:26.137Z,58.08
2023-02-22T20:35:56.227Z,58.41
2023-02-22T20:38:25.924Z,58.12
2023-02-22T20:40:58.575Z,58.26
2023-02-22T20:43:26.651Z,58.16
2023-02-22T20:45:55.081Z,58.08
2023-02-22T20:48:27.865Z,58.37
2023-02-22T20:50:56.723Z,58.41
2023-02-22T20:53:26.528Z,58.42
2023-02-22T20:55:59.281Z,58.33
2023-02-22T20:58:30.500Z,58.46
2023-02-22T21:01:05.632Z,58.15
2023-02-22T21:03:42.176Z,58.25
2023-02-22T21:06:16.492Z,58.12
2023-02-22T21:08:44.699Z,58.22
2023-02-22T21:11:13.370Z,58.23
2023-02-22T21:13:41.412Z,58.19
2023-02-22T21:16:10.308Z,58.42
2023-02-22T21:18:43.040Z,58.41
2023-02-22T21:21:12.656Z,58.43
2023-02-22T21:23:42.683Z,58.41
2023-02-22T21:26:21.002Z,58.63
2023-02-22T21:28:51.706Z,58.32
2023-02-22T21:31:25.152Z,58.66
2023-02-22T21:33:56.914Z,58.40
2023-02-22T21:36:26.692Z,58.55
2023-02-22T21:39:28.793Z,58.41
2023-02-22T21:42:07.368Z,58.73
2023-02-22T21:44:39.632Z,58.33
2023-02-22T21:47:08.822Z,58.58
2023-02-22T21:49:40.004Z,58.65
2023-02-22T21:52:09.890Z,58.84
2023-02-22T21:54:42.061Z,58.44
2023-02-22T21:57:10.281Z,59.13
2023-02-22T21:59:39.456Z,59.15
2023-02-22T22:02:08.784Z,59.04
2023-02-22T22:04:40.197Z,59.20
2023-02-22T22:07:08.971Z,59.05
2023-02-22T22:09:41.355Z,59.21
2023-02-22T22:12:11.693Z,58.99
2023-02-22T22:14:41.160Z,59.02
2023-02-22T22:17:09.852Z,59.16
2023-02-22T22:19:42.729Z,58.88
2023-02-22T22:22:12.414Z,58.93
2023-02-22T22:24:48.694Z,58.92
2023-02-22T22:27:19.073Z,58.98
2023-02-22T22:29:50.019Z,58.57
2023-02-22T22:32:21.318Z,59.09
2023-02-22T22:34:59.697Z,58.83
2023-02-22T22:37:31.607Z,58.98
2023-02-22T22:40:00.429Z,58.62
2023-02-22T22:42:30.723Z,58.76
2023-02-22T22:45:01.182Z,59.13
2023-02-22T22:47:34.087Z,59.14
2023-02-22T22:50:04.728Z,58.96
2023-02-22T22:52:38.043Z,59.09
2023-02-22T22:55:10.202Z,58.78
2023-02-22T22:57:40.962Z,59.02
2023-02-22T23:00:26.724Z,58.66
2023-02-22T23:02:57.501Z,58.66
2023-02-22T23:05:28.942Z,58.78
2023-02-22T23:08:04.733Z,58.69
2023-02-22T23:10:33.195Z,58.91
2023-02-22T23:13:02.434Z,58.40
2023-02-22T23:15:32.134Z,58.57
2023-02-22T23:18:00.728Z,58.37
2023-02-22T23:20:30.581Z,58.49
2023-02-22T23:23:03.066Z,58.73
2023-02-22T23:25:31.183Z,58.68
2023-02-22T23:27:59.746Z,58.80
2023-02-22T23:30:30.071Z,58.81
2023-02-22T23:33:01.427Z,58.59
2023-02-22T23:35:37.109Z,58.90
2023-02-22T23:38:11.003Z,58.50
2023-02-22T23:40:39.992Z,58.65
2023-02-22T23:43:11.779Z,59.00
2023-02-22T23:45:41.060Z,59.18
2023-02-22T23:48:12.554Z,58.84
2023-02-22T23:50:43.845Z,59.37
2023-02-22T23:53:15.170Z,59.98
2023-02-22T23:55:44.483Z,59.48
2023-02-22T23:58:14.345Z,59.46
